sensor_id;sensor_type;location;lat;lon;timestamp;temperature;humidity
44707;DHT22;30433;45.596;8.408;2023-03-31T00:03:19;9.30;99.90
44707;DHT22;30433;45.596;8.408;2023-03-31T00:09:24;9.60;99.90
44707;DHT22;30433;45.596;8.408;2023-03-31T00:15:29;9.60;99.90
44707;DHT22;30433;45.596;8.408;2023-03-31T00:21:31;9.50;99.90
44707;DHT22;30433;45.596;8.408;2023-03-31T00:27:35;9.20;99.90
44707;DHT22;30433;45.596;8.408;2023-03-31T00:33:37;8.70;99.90
44707;DHT22;30433;45.596;8.408;2023-03-31T00:39:39;8.90;99.90
44707;DHT22;30433;45.596;8.408;2023-03-31T00:45:42;9.30;99.90
44707;DHT22;30433;45.596;8.408;2023-03-31T00:51:45;9.70;99.90
44707;DHT22;30433;45.596;8.408;2023-03-31T00:57:49;9.40;99.90
44707;DHT22;30433;45.596;8.408;2023-03-31T01:03:54;9.70;99.90
44707;DHT22;30433;45.596;8.408;2023-03-31T01:09:57;9.60;99.90
44707;DHT22;30433;45.596;8.408;2023-03-31T01:16:01;9.20;99.90
44707;DHT22;30433;45.596;8.408;2023-03-31T01:28:23;9.10;99.90
44707;DHT22;30433;45.596;8.408;2023-03-31T01:41:01;9.10;99.90
44707;DHT22;30433;45.596;8.408;2023-03-31T01:47:08;9.20;99.90
44707;DHT22;30433;45.596;8.408;2023-03-31T01:53:13;9.00;99.90
44707;DHT22;30433;45.596;8.408;2023-03-31T01:59:18;9.20;99.90
44707;DHT22;30433;45.596;8.408;2023-03-31T02:05:23;9.00;99.90
44707;DHT22;30433;45.596;8.408;2023-03-31T02:11:26;9.40;99.90
44707;DHT22;30433;45.596;8.408;2023-03-31T02:17:30;9.50;99.90
44707;DHT22;30433;45.596;8.408;2023-03-31T02:23:33;9.50;99.90
44707;DHT22;30433;45.596;8.408;2023-03-31T02:29:37;9.20;99.90
44707;DHT22;30433;45.596;8.408;2023-03-31T02:35:40;9.30;99.90
44707;DHT22;30433;45.596;8.408;2023-03-31T02:41:42;9.20;99.90
44707;DHT22;30433;45.596;8.408;2023-03-31T02:47:44;9.30;99.90
44707;DHT22;30433;45.596;8.408;2023-03-31T02:53:50;9.40;99.90
44707;DHT22;30433;45.596;8.408;2023-03-31T02:59:59;9.30;99.90
44707;DHT22;30433;45.596;8.408;2023-03-31T03:06:09;9.30;99.90
44707;DHT22;30433;45.596;8.408;2023-03-31T03:12:16;9.20;99.90
44707;DHT22;30433;45.596;8.408;2023-03-31T03:18:21;9.30;99.90
44707;DHT22;30433;45.596;8.408;2023-03-31T03:24:23;9.60;99.90
44707;DHT22;30433;45.596;8.408;2023-03-31T03:30:30;9.30;99.90
44707;DHT22;30433;45.596;8.408;2023-03-31T03:36:32;9.60;99.90
44707;DHT22;30433;45.596;8.408;2023-03-31T03:42:34;9.70;99.90
44707;DHT22;30433;45.596;8.408;2023-03-31T03:48:37;9.20;99.90
44707;DHT22;30433;45.596;8.408;2023-03-31T03:54:39;9.50;99.90
44707;DHT22;30433;45.596;8.408;2023-03-31T04:00:41;9.50;99.90
44707;DHT22;30433;45.596;8.408;2023-03-31T04:06:46;9.50;99.90
44707;DHT22;30433;45.596;8.408;2023-03-31T04:12:47;9.70;99.90
44707;DHT22;30433;45.596;8.408;2023-03-31T04:18:49;9.50;99.90
44707;DHT22;30433;45.596;8.408;2023-03-31T04:24:53;9.40;99.90
44707;DHT22;30433;45.596;8.408;2023-03-31T04:30:58;9.80;99.90
44707;DHT22;30433;45.596;8.408;2023-03-31T04:37:00;9.70;99.90
44707;DHT22;30433;45.596;8.408;2023-03-31T04:43:03;9.70;99.90
44707;DHT22;30433;45.596;8.408;2023-03-31T04:49:05;9.70;99.90
44707;DHT22;30433;45.596;8.408;2023-03-31T04:55:07;9.40;99.90
44707;DHT22;30433;45.596;8.408;2023-03-31T05:01:11;9.60;99.90
44707;DHT22;30433;45.596;8.408;2023-03-31T05:07:17;9.50;99.90
44707;DHT22;30433;45.596;8.408;2023-03-31T05:13:19;9.40;99.90
44707;DHT22;30433;45.596;8.408;2023-03-31T05:19:23;9.40;99.90
44707;DHT22;30433;45.596;8.408;2023-03-31T05:25:25;9.50;99.90
44707;DHT22;30433;45.596;8.408;2023-03-31T05:31:31;9.60;99.90
44707;DHT22;30433;45.596;8.408;2023-03-31T05:37:35;9.60;99.90
44707;DHT22;30433;45.596;8.408;2023-03-31T05:43:37;9.60;99.90
44707;DHT22;30433;45.596;8.408;2023-03-31T05:49:39;9.60;99.90
44707;DHT22;30433;45.596;8.408;2023-03-31T05:55:42;9.70;99.90
44707;DHT22;30433;45.596;8.408;2023-03-31T06:01:45;9.90;99.90
44707;DHT22;30433;45.596;8.408;2023-03-31T06:07:46;9.80;99.90
44707;DHT22;30433;45.596;8.408;2023-03-31T06:13:50;9.90;99.90
44707;DHT22;30433;45.596;8.408;2023-03-31T06:19:51;10.00;99.90
44707;DHT22;30433;45.596;8.408;2023-03-31T06:25:53;9.80;99.90
44707;DHT22;30433;45.596;8.408;2023-03-31T06:31:57;9.80;99.90
44707;DHT22;30433;45.596;8.408;2023-03-31T06:37:58;9.90;99.90
44707;DHT22;30433;45.596;8.408;2023-03-31T06:44:00;10.20;99.90
44707;DHT22;30433;45.596;8.408;2023-03-31T06:50:04;10.30;99.90
44707;DHT22;30433;45.596;8.408;2023-03-31T06:56:06;10.20;99.90
44707;DHT22;30433;45.596;8.408;2023-03-31T07:02:08;10.40;99.90
44707;DHT22;30433;45.596;8.408;2023-03-31T07:08:12;10.30;99.90
44707;DHT22;30433;45.596;8.408;2023-03-31T07:14:14;10.40;99.90
44707;DHT22;30433;45.596;8.408;2023-03-31T07:20:16;10.50;99.90
44707;DHT22;30433;45.596;8.408;2023-03-31T07:26:20;10.50;99.90
44707;DHT22;30433;45.596;8.408;2023-03-31T07:32:22;10.60;99.90
44707;DHT22;30433;45.596;8.408;2023-03-31T07:38:23;10.60;99.90
44707;DHT22;30433;45.596;8.408;2023-03-31T07:44:27;10.70;99.90
44707;DHT22;30433;45.596;8.408;2023-03-31T07:50:29;10.70;99.90
44707;DHT22;30433;45.596;8.408;2023-03-31T07:56:31;11.00;99.90
44707;DHT22;30433;45.596;8.408;2023-03-31T08:02:34;10.90;99.90
44707;DHT22;30433;45.596;8.408;2023-03-31T08:08:36;11.10;99.90
44707;DHT22;30433;45.596;8.408;2023-03-31T08:14:42;11.10;99.90
44707;DHT22;30433;45.596;8.408;2023-03-31T08:20:45;11.10;99.90
44707;DHT22;30433;45.596;8.408;2023-03-31T08:26:49;11.40;99.90
44707;DHT22;30433;45.596;8.408;2023-03-31T08:32:51;11.50;99.90
44707;DHT22;30433;45.596;8.408;2023-03-31T08:38:54;11.50;99.90
44707;DHT22;30433;45.596;8.408;2023-03-31T08:44:56;11.50;99.90
44707;DHT22;30433;45.596;8.408;2023-03-31T08:51:02;11.50;99.90
44707;DHT22;30433;45.596;8.408;2023-03-31T08:57:09;11.60;99.90
44707;DHT22;30433;45.596;8.408;2023-03-31T09:03:14;11.60;99.90
44707;DHT22;30433;45.596;8.408;2023-03-31T09:09:21;11.80;99.90
44707;DHT22;30433;45.596;8.408;2023-03-31T09:15:27;11.90;99.90
44707;DHT22;30433;45.596;8.408;2023-03-31T09:21:31;12.00;99.90
44707;DHT22;30433;45.596;8.408;2023-03-31T09:27:33;12.10;99.90
44707;DHT22;30433;45.596;8.408;2023-03-31T09:33:38;12.10;99.90
44707;DHT22;30433;45.596;8.408;2023-03-31T09:39:41;12.00;99.90
44707;DHT22;30433;45.596;8.408;2023-03-31T09:45:43;11.90;99.90
44707;DHT22;30433;45.596;8.408;2023-03-31T09:51:47;11.90;99.90
44707;DHT22;30433;45.596;8.408;2023-03-31T09:57:49;12.10;99.90
44707;DHT22;30433;45.596;8.408;2023-03-31T10:03:53;12.20;99.90
44707;DHT22;30433;45.596;8.408;2023-03-31T10:09:57;12.20;99.90
44707;DHT22;30433;45.596;8.408;2023-03-31T10:16:01;12.00;99.90
44707;DHT22;30433;45.596;8.408;2023-03-31T10:22:03;11.90;99.90
44707;DHT22;30433;45.596;8.408;2023-03-31T10:28:10;11.90;99.90
44707;DHT22;30433;45.596;8.408;2023-03-31T10:34:14;12.00;99.90
44707;DHT22;30433;45.596;8.408;2023-03-31T10:40:19;12.10;99.90
44707;DHT22;30433;45.596;8.408;2023-03-31T10:46:23;12.20;99.90
44707;DHT22;30433;45.596;8.408;2023-03-31T10:52:42;12.10;99.90
44707;DHT22;30433;45.596;8.408;2023-03-31T11:05:14;12.20;99.90
44707;DHT22;30433;45.596;8.408;2023-03-31T11:17:40;12.10;99.90
44707;DHT22;30433;45.596;8.408;2023-03-31T11:23:49;12.40;99.90
44707;DHT22;30433;45.596;8.408;2023-03-31T11:29:53;12.40;99.90
44707;DHT22;30433;45.596;8.408;2023-03-31T11:36:02;12.40;99.90
44707;DHT22;30433;45.596;8.408;2023-03-31T11:42:09;12.40;99.90
44707;DHT22;30433;45.596;8.408;2023-03-31T11:48:15;12.50;99.90
44707;DHT22;30433;45.596;8.408;2023-03-31T11:54:19;12.50;99.90
44707;DHT22;30433;45.596;8.408;2023-03-31T12:00:26;12.60;99.90
44707;DHT22;30433;45.596;8.408;2023-03-31T12:06:29;12.50;99.90
44707;DHT22;30433;45.596;8.408;2023-03-31T12:12:32;12.60;99.90
44707;DHT22;30433;45.596;8.408;2023-03-31T12:18:37;12.60;99.90
44707;DHT22;30433;45.596;8.408;2023-03-31T12:24:40;12.50;99.90
44707;DHT22;30433;45.596;8.408;2023-03-31T12:30:42;12.50;99.90
44707;DHT22;30433;45.596;8.408;2023-03-31T12:36:48;12.60;99.90
44707;DHT22;30433;45.596;8.408;2023-03-31T12:42:58;12.50;99.90
44707;DHT22;30433;45.596;8.408;2023-03-31T12:49:08;12.60;99.90
44707;DHT22;30433;45.596;8.408;2023-03-31T12:55:22;12.90;99.90
44707;DHT22;30433;45.596;8.408;2023-03-31T13:01:28;13.10;99.90
44707;DHT22;30433;45.596;8.408;2023-03-31T13:07:34;13.30;99.90
44707;DHT22;30433;45.596;8.408;2023-03-31T13:13:38;13.20;99.90
44707;DHT22;30433;45.596;8.408;2023-03-31T13:19:41;13.40;99.90
44707;DHT22;30433;45.596;8.408;2023-03-31T13:25:44;13.50;99.90
44707;DHT22;30433;45.596;8.408;2023-03-31T13:32:06;13.90;99.90
44707;DHT22;30433;45.596;8.408;2023-03-31T13:38:12;13.90;99.90
44707;DHT22;30433;45.596;8.408;2023-03-31T13:44:27;13.90;99.90
44707;DHT22;30433;45.596;8.408;2023-03-31T13:50:53;13.90;99.90
44707;DHT22;30433;45.596;8.408;2023-03-31T13:57:04;13.90;99.90
44707;DHT22;30433;45.596;8.408;2023-03-31T14:03:16;14.00;99.90
44707;DHT22;30433;45.596;8.408;2023-03-31T14:09:22;13.70;99.90
44707;DHT22;30433;45.596;8.408;2023-03-31T14:15:26;13.40;99.90
44707;DHT22;30433;45.596;8.408;2023-03-31T14:21:30;12.50;99.90
44707;DHT22;30433;45.596;8.408;2023-03-31T14:27:40;12.10;99.90
44707;DHT22;30433;45.596;8.408;2023-03-31T14:33:46;11.70;99.90
44707;DHT22;30433;45.596;8.408;2023-03-31T14:39:52;11.70;99.90
44707;DHT22;30433;45.596;8.408;2023-03-31T14:45:58;11.70;99.90
44707;DHT22;30433;45.596;8.408;2023-03-31T14:52:00;12.00;99.90
44707;DHT22;30433;45.596;8.408;2023-03-31T14:58:02;11.90;99.90
44707;DHT22;30433;45.596;8.408;2023-03-31T15:04:06;11.80;99.90
44707;DHT22;30433;45.596;8.408;2023-03-31T15:10:11;11.90;99.90
44707;DHT22;30433;45.596;8.408;2023-03-31T15:16:26;11.70;99.90
44707;DHT22;30433;45.596;8.408;2023-03-31T15:22:31;11.80;99.90
44707;DHT22;30433;45.596;8.408;2023-03-31T15:28:35;11.90;99.90
44707;DHT22;30433;45.596;8.408;2023-03-31T15:34:40;12.20;99.90
44707;DHT22;30433;45.596;8.408;2023-03-31T15:40:48;12.20;99.90
44707;DHT22;30433;45.596;8.408;2023-03-31T15:46:58;12.20;99.90
44707;DHT22;30433;45.596;8.408;2023-03-31T15:53:01;12.30;99.90
44707;DHT22;30433;45.596;8.408;2023-03-31T15:59:05;12.30;99.90
44707;DHT22;30433;45.596;8.408;2023-03-31T16:05:18;12.40;99.90
44707;DHT22;30433;45.596;8.408;2023-03-31T16:11:23;12.50;99.90
44707;DHT22;30433;45.596;8.408;2023-03-31T16:17:29;12.10;99.90
44707;DHT22;30433;45.596;8.408;2023-03-31T16:23:32;12.10;99.90
44707;DHT22;30433;45.596;8.408;2023-03-31T16:29:38;12.10;99.90
44707;DHT22;30433;45.596;8.408;2023-03-31T16:35:42;12.10;99.90
44707;DHT22;30433;45.596;8.408;2023-03-31T16:41:44;12.00;99.90
44707;DHT22;30433;45.596;8.408;2023-03-31T16:47:46;11.90;99.90
44707;DHT22;30433;45.596;8.408;2023-03-31T16:53:49;12.10;99.90
44707;DHT22;30433;45.596;8.408;2023-03-31T16:59:51;12.10;99.90
44707;DHT22;30433;45.596;8.408;2023-03-31T17:05:53;11.90;99.90
44707;DHT22;30433;45.596;8.408;2023-03-31T17:11:57;11.90;99.90
44707;DHT22;30433;45.596;8.408;2023-03-31T17:17:59;12.00;99.90
44707;DHT22;30433;45.596;8.408;2023-03-31T17:24:01;11.90;99.90
44707;DHT22;30433;45.596;8.408;2023-03-31T17:30:05;11.80;99.90
44707;DHT22;30433;45.596;8.408;2023-03-31T17:36:08;11.70;99.90
44707;DHT22;30433;45.596;8.408;2023-03-31T17:42:10;11.60;99.90
44707;DHT22;30433;45.596;8.408;2023-03-31T17:48:13;11.40;99.90
44707;DHT22;30433;45.596;8.408;2023-03-31T17:54:16;11.30;99.90
44707;DHT22;30433;45.596;8.408;2023-03-31T18:00:18;11.10;99.90
44707;DHT22;30433;45.596;8.408;2023-03-31T18:06:22;11.00;99.90
44707;DHT22;30433;45.596;8.408;2023-03-31T18:12:24;10.80;99.90
44707;DHT22;30433;45.596;8.408;2023-03-31T18:18:28;10.70;99.90
44707;DHT22;30433;45.596;8.408;2023-03-31T18:24:32;10.60;99.90
44707;DHT22;30433;45.596;8.408;2023-03-31T18:30:36;10.60;99.90
44707;DHT22;30433;45.596;8.408;2023-03-31T18:36:38;10.50;99.90
44707;DHT22;30433;45.596;8.408;2023-03-31T18:42:41;10.80;99.90
44707;DHT22;30433;45.596;8.408;2023-03-31T18:48:43;11.10;99.90
44707;DHT22;30433;45.596;8.408;2023-03-31T18:54:45;10.90;99.90
44707;DHT22;30433;45.596;8.408;2023-03-31T19:00:49;10.60;99.90
44707;DHT22;30433;45.596;8.408;2023-03-31T19:06:52;10.60;99.90
44707;DHT22;30433;45.596;8.408;2023-03-31T19:12:57;10.30;99.90
44707;DHT22;30433;45.596;8.408;2023-03-31T19:19:05;10.40;99.90
44707;DHT22;30433;45.596;8.408;2023-03-31T19:25:11;10.70;99.90
44707;DHT22;30433;45.596;8.408;2023-03-31T19:31:15;10.90;99.90
44707;DHT22;30433;45.596;8.408;2023-03-31T19:37:18;10.70;99.90
44707;DHT22;30433;45.596;8.408;2023-03-31T19:43:22;10.70;99.90
44707;DHT22;30433;45.596;8.408;2023-03-31T19:49:24;10.30;99.90
44707;DHT22;30433;45.596;8.408;2023-03-31T19:55:29;9.80;99.90
44707;DHT22;30433;45.596;8.408;2023-03-31T20:01:33;9.80;99.90
44707;DHT22;30433;45.596;8.408;2023-03-31T20:07:35;9.70;99.90
44707;DHT22;30433;45.596;8.408;2023-03-31T20:13:39;9.70;99.90
44707;DHT22;30433;45.596;8.408;2023-03-31T20:19:42;9.50;99.90
44707;DHT22;30433;45.596;8.408;2023-03-31T20:25:44;9.10;99.90
44707;DHT22;30433;45.596;8.408;2023-03-31T20:31:47;9.80;99.90
44707;DHT22;30433;45.596;8.408;2023-03-31T20:37:50;9.40;99.90
44707;DHT22;30433;45.596;8.408;2023-03-31T20:43:52;8.60;99.90
44707;DHT22;30433;45.596;8.408;2023-03-31T20:49:55;9.00;99.90
44707;DHT22;30433;45.596;8.408;2023-03-31T20:55:57;8.60;99.90
44707;DHT22;30433;45.596;8.408;2023-03-31T21:01:59;7.70;99.90
44707;DHT22;30433;45.596;8.408;2023-03-31T21:08:03;8.60;99.90
44707;DHT22;30433;45.596;8.408;2023-03-31T21:14:05;8.00;99.90
44707;DHT22;30433;45.596;8.408;2023-03-31T21:20:07;7.70;99.90
44707;DHT22;30433;45.596;8.408;2023-03-31T21:26:12;6.90;99.90
44707;DHT22;30433;45.596;8.408;2023-03-31T21:32:14;7.50;99.90
44707;DHT22;30433;45.596;8.408;2023-03-31T21:38:16;8.00;99.90
44707;DHT22;30433;45.596;8.408;2023-03-31T21:44:20;6.80;99.90
44707;DHT22;30433;45.596;8.408;2023-03-31T21:50:22;7.60;99.90
44707;DHT22;30433;45.596;8.408;2023-03-31T21:56:24;8.00;99.90
44707;DHT22;30433;45.596;8.408;2023-03-31T22:02:29;7.90;99.90
44707;DHT22;30433;45.596;8.408;2023-03-31T22:08:32;7.70;99.90
44707;DHT22;30433;45.596;8.408;2023-03-31T22:14:35;5.90;99.90
44707;DHT22;30433;45.596;8.408;2023-03-31T22:20:38;6.40;99.90
44707;DHT22;30433;45.596;8.408;2023-03-31T22:26:40;7.00;99.90
44707;DHT22;30433;45.596;8.408;2023-03-31T22:32:42;6.80;99.90
44707;DHT22;30433;45.596;8.408;2023-03-31T22:38:45;6.70;99.90
44707;DHT22;30433;45.596;8.408;2023-03-31T22:44:47;6.80;99.90
44707;DHT22;30433;45.596;8.408;2023-03-31T22:50:49;7.00;99.90
44707;DHT22;30433;45.596;8.408;2023-03-31T22:56:53;6.80;99.90
44707;DHT22;30433;45.596;8.408;2023-03-31T23:02:56;5.90;99.90
44707;DHT22;30433;45.596;8.408;2023-03-31T23:08:58;6.30;99.90
44707;DHT22;30433;45.596;8.408;2023-03-31T23:15:02;6.80;99.90
44707;DHT22;30433;45.596;8.408;2023-03-31T23:21:04;7.10;99.90
44707;DHT22;30433;45.596;8.408;2023-03-31T23:27:06;6.50;99.90
44707;DHT22;30433;45.596;8.408;2023-03-31T23:33:09;5.60;99.90
44707;DHT22;30433;45.596;8.408;2023-03-31T23:39:11;6.30;99.90
44707;DHT22;30433;45.596;8.408;2023-03-31T23:45:13;6.80;99.90
44707;DHT22;30433;45.596;8.408;2023-03-31T23:51:16;6.10;99.90
44707;DHT22;30433;45.596;8.408;2023-03-31T23:57:18;6.70;99.90
